createdAt,value
2022-08-03T00:02:16.685Z,15.80
2022-08-03T00:04:43.598Z,15.70
2022-08-03T00:07:10.451Z,15.60
2022-08-03T00:09:37.242Z,15.70
2022-08-03T00:12:04.485Z,15.70
2022-08-03T00:14:31.302Z,15.50
2022-08-03T00:16:58.208Z,15.50
2022-08-03T00:19:25.081Z,15.50
2022-08-03T00:21:52.057Z,15.50
2022-08-03T00:24:18.829Z,15.50
2022-08-03T00:26:45.879Z,15.50
2022-08-03T00:29:12.640Z,15.60
2022-08-03T00:31:51.716Z,15.50
2022-08-03T00:34:29.834Z,15.40
2022-08-03T00:37:03.554Z,15.30
2022-08-03T00:39:30.338Z,15.30
2022-08-03T00:41:57.103Z,15.30
2022-08-03T00:44:23.907Z,15.30
2022-08-03T00:46:50.694Z,15.30
2022-08-03T00:49:17.527Z,15.20
2022-08-03T00:51:44.533Z,15.20
2022-08-03T00:54:11.335Z,15.20
2022-08-03T00:56:38.778Z,15.20
2022-08-03T00:59:25.605Z,15.10
2022-08-03T01:01:54.135Z,15.00
2022-08-03T01:04:20.882Z,15.00
2022-08-03T01:07:03.441Z,14.90
2022-08-03T01:09:57.552Z,14.90
2022-08-03T01:12:48.536Z,14.90
2022-08-03T01:15:59.255Z,14.80
2022-08-03T01:18:59.973Z,14.80
2022-08-03T01:21:46.864Z,14.80
2022-08-03T01:24:55.760Z,14.70
2022-08-03T01:28:02.979Z,14.70
2022-08-03T01:30:35.241Z,14.60
2022-08-03T01:33:17.501Z,14.60
2022-08-03T01:36:04.898Z,14.60
2022-08-03T01:38:42.112Z,14.50
2022-08-03T01:41:15.342Z,14.50
2022-08-03T01:44:26.538Z,14.50
2022-08-03T01:46:37.413Z,14.60
2022-08-03T01:49:10.029Z,14.60
2022-08-03T01:52:04.137Z,14.60
2022-08-03T01:54:29.800Z,14.50
2022-08-03T01:56:58.943Z,14.50
2022-08-03T01:59:29.169Z,14.40
2022-08-03T02:02:27.649Z,14.40
2022-08-03T02:04:47.919Z,14.50
2022-08-03T02:07:16.320Z,14.40
2022-08-03T02:09:50.183Z,14.40
2022-08-03T02:12:19.219Z,14.40
2022-08-03T02:14:48.587Z,14.40
2022-08-03T02:17:16.348Z,14.30
2022-08-03T02:19:44.353Z,14.20
2022-08-03T02:22:14.016Z,14.10
2022-08-03T02:24:41.486Z,14.00
2022-08-03T02:27:24.225Z,14.00
2022-08-03T02:30:02.788Z,14.00
2022-08-03T02:32:37.347Z,13.90
2022-08-03T02:35:09.473Z,13.90
2022-08-03T02:38:00.993Z,13.90
2022-08-03T02:40:31.408Z,13.90
2022-08-03T02:43:10.546Z,13.80
2022-08-03T02:45:45.887Z,13.80
2022-08-03T02:48:20.120Z,13.80
2022-08-03T02:50:49.926Z,13.70
2022-08-03T02:53:19.821Z,13.80
2022-08-03T02:55:49.625Z,13.70
2022-08-03T02:58:23.855Z,13.80
2022-08-03T03:00:53.133Z,13.80
2022-08-03T03:03:22.305Z,13.80
2022-08-03T03:05:55.016Z,13.70
2022-08-03T03:08:28.681Z,13.90
2022-08-03T03:11:01.697Z,13.80
2022-08-03T03:13:32.515Z,13.70
2022-08-03T03:16:03.734Z,13.70
2022-08-03T03:18:34.034Z,13.70
2022-08-03T03:21:03.251Z,13.70
2022-08-03T03:23:34.073Z,13.70
2022-08-03T03:26:02.264Z,13.60
2022-08-03T03:28:30.667Z,13.60
2022-08-03T03:30:58.869Z,13.60
2022-08-03T03:33:28.373Z,13.60
2022-08-03T03:35:56.508Z,13.60
2022-08-03T03:38:23.360Z,13.60
2022-08-03T03:40:50.393Z,13.60
2022-08-03T03:43:20.407Z,13.60
2022-08-03T03:45:49.149Z,13.60
2022-08-03T03:48:16.276Z,13.60
2022-08-03T03:50:44.482Z,13.60
2022-08-03T03:53:12.935Z,13.60
2022-08-03T03:56:01.196Z,13.60
2022-08-03T03:58:28.075Z,13.50
2022-08-03T04:00:55.035Z,13.60
2022-08-03T04:03:21.948Z,13.60
2022-08-03T04:06:08.619Z,13.50
2022-08-03T04:08:53.813Z,13.60
2022-08-03T04:11:34.886Z,13.60
2022-08-03T04:14:24.124Z,13.60
2022-08-03T04:16:57.826Z,13.60
2022-08-03T04:19:38.497Z,13.60
2022-08-03T04:22:13.940Z,13.60
2022-08-03T04:24:53.608Z,13.70
2022-08-03T04:27:36.726Z,13.70
2022-08-03T04:30:06.713Z,13.80
2022-08-03T04:32:36.784Z,13.80
2022-08-03T04:35:04.852Z,13.90
2022-08-03T04:37:39.929Z,14.00
2022-08-03T04:40:13.217Z,14.00
2022-08-03T04:42:42.909Z,14.10
2022-08-03T04:45:14.807Z,14.20
2022-08-03T04:47:42.912Z,14.40
2022-08-03T04:50:13.502Z,14.50
2022-08-03T04:52:42.317Z,14.60
2022-08-03T04:55:09.657Z,14.70
2022-08-03T04:57:36.574Z,14.70
2022-08-03T05:00:06.137Z,14.80
2022-08-03T05:02:33.477Z,14.90
2022-08-03T05:05:00.398Z,15.10
2022-08-03T05:07:35.473Z,15.10
2022-08-03T05:10:10.166Z,15.20
2022-08-03T05:12:44.530Z,15.40
2022-08-03T05:15:11.898Z,15.60
2022-08-03T05:17:38.736Z,15.90
2022-08-03T05:20:06.365Z,16.30
2022-08-03T05:22:33.168Z,16.80
2022-08-03T05:25:02.246Z,17.20
2022-08-03T05:27:29.390Z,17.50
2022-08-03T05:29:56.184Z,17.80
2022-08-03T05:32:42.928Z,18.10
2022-08-03T05:36:02.676Z,18.30
2022-08-03T05:37:57.024Z,18.50
2022-08-03T05:40:23.886Z,18.70
2022-08-03T05:42:53.661Z,18.80
2022-08-03T05:45:23.198Z,19.00
2022-08-03T05:47:52.228Z,19.20
2022-08-03T05:50:20.208Z,19.50
2022-08-03T05:52:47.531Z,19.80
2022-08-03T05:55:14.604Z,20.10
2022-08-03T05:57:41.726Z,20.40
2022-08-03T06:00:12.762Z,20.60
2022-08-03T06:02:43.172Z,20.80
2022-08-03T06:05:10.762Z,21.10
2022-08-03T06:07:38.023Z,21.30
2022-08-03T06:10:35.438Z,21.30
2022-08-03T06:12:53.645Z,21.50
2022-08-03T06:15:20.878Z,21.70
2022-08-03T06:17:52.288Z,22.00
2022-08-03T06:20:21.003Z,22.30
2022-08-03T06:22:50.692Z,22.50
2022-08-03T06:25:19.419Z,22.80
2022-08-03T06:27:48.489Z,23.00
2022-08-03T06:30:20.898Z,23.20
2022-08-03T06:32:52.124Z,23.40
2022-08-03T06:35:19.800Z,23.60
2022-08-03T06:37:49.918Z,23.60
2022-08-03T06:40:29.577Z,23.60
2022-08-03T06:42:58.537Z,23.70
2022-08-03T06:45:26.295Z,23.80
2022-08-03T06:48:11.617Z,23.90
2022-08-03T06:50:41.708Z,23.90
2022-08-03T06:53:10.278Z,23.90
2022-08-03T06:55:46.848Z,24.00
2022-08-03T06:58:15.844Z,24.20
2022-08-03T07:00:42.728Z,24.30
2022-08-03T07:03:09.714Z,24.40
2022-08-03T07:05:36.615Z,24.50
2022-08-03T07:08:03.653Z,24.60
2022-08-03T07:10:30.596Z,24.80
2022-08-03T07:12:57.409Z,24.90
2022-08-03T07:15:53.892Z,25.00
2022-08-03T07:18:12.126Z,25.10
2022-08-03T07:20:38.992Z,25.20
2022-08-03T07:23:05.816Z,25.30
2022-08-03T07:25:32.662Z,25.40
2022-08-03T07:27:59.642Z,25.60
2022-08-03T07:30:26.519Z,25.90
2022-08-03T07:32:53.276Z,26.40
2022-08-03T07:35:24.924Z,27.10
2022-08-03T07:37:54.387Z,27.70
2022-08-03T07:40:22.821Z,28.40
2022-08-03T07:42:52.220Z,28.80
2022-08-03T07:45:23.298Z,29.10
2022-08-03T07:47:53.313Z,29.50
2022-08-03T07:50:21.819Z,29.70
2022-08-03T07:52:49.925Z,29.80
2022-08-03T07:55:20.426Z,29.80
2022-08-03T07:57:48.614Z,29.80
2022-08-03T08:00:19.549Z,29.80
2022-08-03T08:02:46.733Z,29.70
2022-08-03T08:05:13.643Z,29.60
2022-08-03T08:07:40.760Z,29.50
2022-08-03T08:10:10.162Z,29.40
2022-08-03T08:12:39.127Z,29.30
2022-08-03T08:15:08.180Z,29.00
2022-08-03T08:17:44.717Z,28.80
2022-08-03T08:20:21.771Z,28.60
2022-08-03T08:22:58.150Z,28.50
2022-08-03T08:25:26.292Z,28.40
2022-08-03T08:28:22.540Z,28.40
2022-08-03T08:30:40.634Z,28.50
2022-08-03T08:33:08.623Z,28.50
2022-08-03T08:35:37.370Z,28.50
2022-08-03T08:38:05.741Z,28.50
2022-08-03T08:40:33.254Z,28.50
2022-08-03T08:43:00.057Z,28.50
2022-08-03T08:45:27.708Z,28.50
2022-08-03T08:48:01.062Z,28.50
2022-08-03T08:50:30.496Z,28.60
2022-08-03T08:53:03.670Z,28.60
2022-08-03T08:55:57.904Z,28.70
2022-08-03T08:58:21.598Z,28.80
2022-08-03T09:00:48.577Z,28.90
2022-08-03T09:03:22.419Z,28.80
2022-08-03T09:05:57.507Z,28.80
2022-08-03T09:08:24.642Z,28.80
2022-08-03T09:10:51.741Z,28.80
2022-08-03T09:13:19.151Z,28.90
2022-08-03T09:16:00.544Z,28.90
2022-08-03T09:18:32.809Z,28.90
2022-08-03T09:21:33.151Z,29.00
2022-08-03T09:24:05.619Z,29.00
2022-08-03T09:26:36.088Z,28.90
2022-08-03T09:29:07.131Z,28.90
2022-08-03T09:31:46.963Z,28.90
2022-08-03T09:34:18.273Z,28.90
2022-08-03T09:36:50.842Z,28.90
2022-08-03T09:39:40.557Z,28.90
2022-08-03T09:42:11.485Z,29.00
2022-08-03T09:44:47.612Z,29.10
2022-08-03T09:47:29.682Z,29.30
2022-08-03T09:50:02.243Z,29.40
2022-08-03T09:52:52.405Z,29.50
2022-08-03T09:56:05.207Z,29.50
2022-08-03T09:58:10.162Z,29.50
2022-08-03T10:01:03.783Z,29.50
2022-08-03T10:03:35.039Z,29.60
2022-08-03T10:06:29.003Z,29.60
2022-08-03T10:09:10.244Z,29.80
2022-08-03T10:11:42.055Z,30.00
2022-08-03T10:14:18.845Z,30.10
2022-08-03T10:16:48.163Z,30.20
2022-08-03T10:19:15.889Z,30.20
2022-08-03T10:21:55.505Z,30.20
2022-08-03T10:24:28.128Z,30.20
2022-08-03T10:27:03.717Z,30.30
2022-08-03T10:29:38.998Z,30.30
2022-08-03T10:32:35.035Z,30.30
2022-08-03T10:35:23.311Z,30.30
2022-08-03T10:37:58.661Z,30.40
2022-08-03T10:40:48.248Z,30.50
2022-08-03T10:43:26.368Z,30.50
2022-08-03T10:45:53.891Z,30.50
2022-08-03T10:48:21.562Z,30.50
2022-08-03T10:50:49.988Z,30.70
2022-08-03T10:53:33.545Z,31.20
2022-08-03T10:56:19.573Z,31.50
2022-08-03T10:59:03.783Z,31.90
2022-08-03T11:02:00.430Z,32.40
2022-08-03T11:04:29.755Z,32.80
2022-08-03T11:07:15.992Z,32.90
2022-08-03T11:09:49.506Z,33.00
2022-08-03T11:12:30.044Z,33.10
2022-08-03T11:15:05.091Z,33.00
2022-08-03T11:17:46.583Z,33.00
2022-08-03T11:20:47.563Z,32.70
2022-08-03T11:23:17.194Z,32.40
2022-08-03T11:26:19.467Z,32.20
2022-08-03T11:28:48.422Z,32.00
2022-08-03T11:31:48.869Z,32.00
2022-08-03T11:34:16.533Z,31.90
2022-08-03T11:37:23.019Z,31.90
2022-08-03T11:39:54.621Z,32.00
2022-08-03T11:42:24.588Z,32.20
2022-08-03T11:44:56.536Z,32.20
2022-08-03T11:47:27.714Z,32.10
2022-08-03T11:49:59.010Z,32.00
2022-08-03T11:52:33.625Z,31.90
2022-08-03T11:55:01.137Z,31.90
2022-08-03T11:59:17.704Z,32.00
2022-08-03T12:00:26.071Z,32.00
2022-08-03T12:03:03.707Z,31.80
2022-08-03T12:05:52.679Z,31.60
2022-08-03T12:08:28.453Z,31.60
2022-08-03T12:10:57.500Z,31.80
2022-08-03T12:14:44.751Z,31.90
2022-08-03T12:16:22.587Z,31.70
2022-08-03T12:19:06.484Z,31.80
2022-08-03T12:21:34.187Z,31.80
2022-08-03T12:24:04.857Z,32.00
2022-08-03T12:26:58.857Z,32.20
2022-08-03T12:29:27.315Z,32.20
2022-08-03T12:31:55.974Z,32.10
2022-08-03T12:34:23.211Z,32.00
2022-08-03T12:36:53.532Z,31.80
2022-08-03T12:39:26.337Z,31.90
2022-08-03T12:41:55.142Z,31.90
2022-08-03T12:44:34.720Z,31.80
2022-08-03T12:47:04.471Z,31.60
2022-08-03T12:49:50.137Z,31.50
2022-08-03T12:52:19.806Z,31.40
2022-08-03T12:55:01.196Z,31.50
2022-08-03T12:57:43.407Z,31.60
2022-08-03T13:00:29.200Z,31.70
2022-08-03T13:05:54.995Z,32.10
2022-08-03T13:08:25.916Z,32.10
2022-08-03T13:10:52.794Z,32.20
2022-08-03T13:13:38.064Z,32.40
2022-08-03T13:16:04.972Z,32.70
2022-08-03T13:18:31.787Z,32.80
2022-08-03T13:21:00.615Z,32.80
2022-08-03T13:23:27.501Z,32.70
2022-08-03T13:25:55.997Z,32.70
2022-08-03T13:28:23.287Z,32.60
2022-08-03T13:30:50.143Z,32.60
2022-08-03T13:33:17.433Z,32.80
2022-08-03T13:35:44.471Z,32.80
2022-08-03T13:38:11.392Z,32.80
2022-08-03T13:40:41.827Z,32.80
2022-08-03T13:43:09.076Z,32.70
2022-08-03T13:45:36.301Z,32.80
2022-08-03T13:48:03.101Z,32.90
2022-08-03T13:50:31.259Z,33.10
2022-08-03T13:52:58.336Z,33.20
2022-08-03T13:55:25.535Z,33.40
2022-08-03T13:58:04.847Z,33.60
2022-08-03T14:00:34.711Z,33.80
2022-08-03T14:03:09.552Z,33.80
2022-08-03T14:05:40.164Z,33.60
2022-08-03T14:08:07.748Z,33.60
2022-08-03T14:10:38.537Z,33.60
2022-08-03T14:13:06.432Z,33.70
2022-08-03T14:15:37.954Z,33.70
2022-08-03T14:18:07.329Z,33.80
2022-08-03T14:20:47.824Z,33.80
2022-08-03T14:23:15.957Z,33.80
2022-08-03T14:25:50.416Z,33.80
2022-08-03T14:28:22.929Z,33.90
2022-08-03T14:30:54.192Z,33.90
2022-08-03T14:33:21.173Z,34.00
2022-08-03T14:35:48.851Z,34.00
2022-08-03T14:38:17.107Z,34.20
2022-08-03T14:40:44.391Z,34.30
2022-08-03T14:43:11.208Z,34.30
2022-08-03T14:45:39.569Z,34.40
2022-08-03T14:50:32.074Z,34.50
2022-08-03T14:50:55.124Z,34.50
2022-08-03T14:53:22.830Z,34.60
2022-08-03T14:55:51.935Z,34.40
2022-08-03T14:58:27.723Z,34.30
2022-08-03T15:00:56.315Z,34.30
2022-08-03T15:03:25.290Z,34.50
2022-08-03T15:05:58.241Z,34.70
2022-08-03T15:08:26.377Z,34.80
2022-08-03T15:10:54.866Z,34.90
2022-08-03T15:13:21.949Z,34.90
2022-08-03T15:15:49.854Z,35.00
2022-08-03T15:18:16.843Z,35.00
2022-08-03T15:20:45.806Z,34.90
2022-08-03T15:23:15.364Z,34.80
2022-08-03T15:26:02.301Z,34.70
2022-08-03T15:28:33.908Z,34.70
2022-08-03T15:31:01.732Z,34.80
2022-08-03T15:33:29.250Z,34.70
2022-08-03T15:35:57.246Z,34.60
2022-08-03T15:38:25.773Z,34.60
2022-08-03T15:40:54.561Z,34.70
2022-08-03T15:43:23.298Z,34.80
2022-08-03T15:46:12.660Z,34.80
2022-08-03T15:48:37.143Z,34.50
2022-08-03T15:51:05.320Z,34.40
2022-08-03T15:53:33.414Z,34.40
2022-08-03T15:56:00.914Z,34.30
2022-08-03T15:59:04.359Z,34.30
2022-08-03T16:01:19.802Z,34.30
2022-08-03T16:03:47.054Z,34.50
2022-08-03T16:06:13.954Z,34.40
2022-08-03T16:08:40.958Z,34.40
2022-08-03T16:11:07.921Z,34.30
2022-08-03T16:14:11.895Z,34.30
2022-08-03T16:16:21.562Z,34.10
2022-08-03T16:18:48.329Z,33.90
2022-08-03T16:21:19.291Z,33.70
2022-08-03T16:23:47.537Z,33.60
2022-08-03T16:26:14.741Z,33.50
2022-08-03T16:28:41.566Z,33.50
2022-08-03T16:31:09.146Z,33.50
2022-08-03T16:33:36.379Z,33.50
2022-08-03T16:36:03.686Z,33.30
2022-08-03T16:38:31.194Z,33.20
2022-08-03T16:40:58.368Z,33.10
2022-08-03T16:43:25.241Z,33.00
2022-08-03T16:45:52.613Z,33.00
2022-08-03T16:48:19.987Z,32.80
2022-08-03T16:50:47.407Z,32.80
2022-08-03T16:53:16.542Z,32.70
2022-08-03T16:55:51.884Z,32.70
2022-08-03T16:58:41.333Z,32.60
2022-08-03T17:01:22.216Z,32.40
2022-08-03T17:04:01.224Z,32.20
2022-08-03T17:06:36.787Z,31.90
2022-08-03T17:09:20.955Z,31.70
2022-08-03T17:11:50.637Z,31.40
2022-08-03T17:14:22.669Z,31.20
2022-08-03T17:16:54.081Z,31.10
2022-08-03T17:19:24.858Z,31.00
2022-08-03T17:22:10.647Z,31.00
2022-08-03T17:24:45.355Z,31.00
2022-08-03T17:28:50.617Z,30.90
2022-08-03T17:30:12.190Z,30.80
2022-08-03T17:32:57.045Z,30.70
2022-08-03T17:35:34.543Z,30.70
2022-08-03T17:38:08.985Z,30.60
2022-08-03T17:40:37.972Z,30.40
2022-08-03T17:44:13.083Z,30.40
2022-08-03T17:45:54.877Z,30.30
2022-08-03T17:48:25.166Z,30.20
2022-08-03T17:51:08.249Z,30.00
2022-08-03T17:53:55.598Z,29.70
2022-08-03T17:56:46.562Z,29.20
2022-08-03T17:59:51.689Z,28.80
2022-08-03T18:03:18.001Z,28.40
2022-08-03T18:06:10.439Z,28.10
2022-08-03T18:08:54.418Z,27.90
2022-08-03T18:11:35.646Z,27.50
2022-08-03T18:14:35.400Z,27.30
2022-08-03T18:17:10.189Z,27.00
2022-08-03T18:20:01.950Z,26.80
2022-08-03T18:22:28.148Z,26.70
2022-08-03T18:24:59.819Z,26.50
2022-08-03T18:27:42.733Z,26.40
2022-08-03T18:30:15.278Z,26.20
2022-08-03T18:33:00.842Z,25.90
2022-08-03T18:35:53.369Z,25.70
2022-08-03T18:38:18.787Z,25.60
2022-08-03T18:40:48.546Z,25.40
2022-08-03T18:43:17.473Z,25.40
2022-08-03T18:45:56.226Z,25.30
2022-08-03T18:48:50.309Z,25.30
2022-08-03T18:51:33.765Z,25.30
2022-08-03T18:54:51.035Z,25.10
2022-08-03T18:57:30.318Z,25.00
2022-08-03T19:00:14.175Z,24.90
2022-08-03T19:02:54.868Z,24.60
2022-08-03T19:05:49.334Z,24.50
2022-08-03T19:08:28.614Z,24.40
2022-08-03T19:11:06.111Z,24.20
2022-08-03T19:13:50.334Z,24.00
2022-08-03T19:16:41.916Z,24.00
2022-08-03T19:19:14.665Z,23.90
2022-08-03T19:21:41.751Z,23.80
2022-08-03T19:24:10.286Z,23.80
2022-08-03T19:26:39.588Z,23.70
2022-08-03T19:29:14.932Z,23.50
2022-08-03T19:31:59.046Z,23.50
2022-08-03T19:34:29.205Z,23.40
2022-08-03T19:36:58.631Z,23.40
2022-08-03T19:39:26.091Z,23.30
2022-08-03T19:42:08.033Z,23.20
2022-08-03T19:44:42.847Z,23.00
2022-08-03T19:47:22.625Z,22.70
2022-08-03T19:50:05.977Z,22.60
2022-08-03T19:52:40.247Z,22.50
2022-08-03T19:55:12.336Z,22.40
2022-08-03T19:57:45.586Z,22.30
2022-08-03T20:00:14.334Z,22.30
2022-08-03T20:02:42.207Z,22.20
2022-08-03T20:05:14.891Z,22.20
2022-08-03T20:07:48.263Z,22.10
2022-08-03T20:10:17.833Z,22.10
2022-08-03T20:12:47.296Z,22.00
2022-08-03T20:15:18.395Z,22.00
2022-08-03T20:17:58.596Z,21.90
2022-08-03T20:20:34.115Z,21.70
2022-08-03T20:23:17.433Z,21.60
2022-08-03T20:25:58.432Z,21.50
2022-08-03T20:28:50.167Z,21.40
2022-08-03T20:31:22.771Z,21.40
2022-08-03T20:33:53.476Z,21.30
2022-08-03T20:36:20.513Z,21.20
2022-08-03T20:38:48.487Z,21.20
2022-08-03T20:41:20.096Z,21.20
2022-08-03T20:43:49.308Z,21.20
2022-08-03T20:46:32.162Z,21.10
2022-08-03T20:49:06.655Z,21.10
2022-08-03T20:51:52.745Z,21.00
2022-08-03T20:54:29.451Z,21.00
2022-08-03T20:57:04.319Z,21.00
2022-08-03T20:59:47.184Z,20.90
2022-08-03T21:02:30.383Z,20.80
2022-08-03T21:05:08.264Z,20.60
2022-08-03T21:08:07.136Z,20.60
2022-08-03T21:10:39.689Z,20.50
2022-08-03T21:13:23.703Z,20.40
2022-08-03T21:16:12.273Z,20.40
2022-08-03T21:18:49.165Z,20.40
2022-08-03T21:21:22.265Z,20.30
2022-08-03T21:23:55.092Z,20.20
2022-08-03T21:26:26.923Z,20.20
2022-08-03T21:28:56.331Z,20.20
2022-08-03T21:31:26.463Z,20.00
2022-08-03T21:34:05.683Z,20.00
2022-08-03T21:36:36.070Z,20.00
2022-08-03T21:39:08.034Z,19.90
2022-08-03T21:41:38.046Z,19.90
2022-08-03T21:44:06.988Z,19.80
2022-08-03T21:46:39.322Z,19.80
2022-08-03T21:50:07.750Z,19.80
2022-08-03T21:52:04.341Z,19.80
2022-08-03T21:54:38.511Z,19.70
2022-08-03T21:57:18.870Z,19.70
2022-08-03T22:00:08.449Z,19.70
2022-08-03T22:02:35.632Z,19.60
2022-08-03T22:05:05.170Z,19.60
2022-08-03T22:07:33.535Z,19.50
2022-08-03T22:10:02.980Z,19.50
2022-08-03T22:12:31.624Z,19.40
2022-08-03T22:15:02.100Z,19.30
2022-08-03T22:17:55.240Z,19.10
2022-08-03T22:20:23.334Z,19.00
2022-08-03T22:22:57.047Z,19.00
2022-08-03T22:25:35.127Z,19.00
2022-08-03T22:28:13.371Z,19.00
2022-08-03T22:30:42.621Z,19.00
2022-08-03T22:33:12.023Z,18.90
2022-08-03T22:35:50.277Z,18.80
2022-08-03T22:38:18.667Z,18.80
2022-08-03T22:40:48.943Z,18.80
2022-08-03T22:43:16.345Z,18.70
2022-08-03T22:46:09.954Z,18.70
2022-08-03T22:48:41.053Z,18.70
2022-08-03T22:51:08.798Z,18.70
2022-08-03T22:53:36.535Z,18.70
2022-08-03T22:56:04.311Z,18.70
2022-08-03T22:58:31.157Z,18.60
2022-08-03T23:01:08.345Z,18.60
2022-08-03T23:03:58.608Z,18.50
2022-08-03T23:06:37.293Z,18.50
2022-08-03T23:09:09.362Z,18.50
2022-08-03T23:11:42.817Z,18.40
2022-08-03T23:14:16.339Z,18.40
2022-08-03T23:16:45.338Z,18.40
2022-08-03T23:19:17.185Z,18.30
2022-08-03T23:22:02.268Z,18.30
2022-08-03T23:24:38.005Z,18.30
2022-08-03T23:27:07.881Z,18.20
2022-08-03T23:29:37.011Z,18.20
2022-08-03T23:32:06.492Z,18.20
2022-08-03T23:34:53.047Z,18.10
2022-08-03T23:37:20.589Z,18.00
2022-08-03T23:39:49.368Z,18.00
2022-08-03T23:42:21.267Z,18.00
2022-08-03T23:44:55.497Z,17.90
2022-08-03T23:47:23.274Z,17.90
2022-08-03T23:49:50.856Z,17.90
2022-08-03T23:52:54.917Z,17.80
2022-08-03T23:55:54.797Z,17.70
2022-08-03T23:58:38.191Z,17.60
